FOOL Airport Informations

Runway Information
Runway 16 Length 9844 ft width 148 ft
Elevation 29 ft Threshold ft Heading 154
Runway 34 Length 9844 ft Width 148 ft
Elevation 28 ft Threshold ft Heading 334
Airport Frequencies
Type A/G Name A/G VOICE Frequency 655.9 MHZ
Type RDO Name LIBREVILLE Frequency 666.6 MHZ
Type TWR Name TWR Frequency 118.7 MHZ
Airport Navaids
Type VOR-DME Name Libreville Frequency 112100 KHZ
Airport Weather Information & NOTAM
ADDS - METARS form results

(1956 UTC 16 August 2022)
Data provider http://aviationweather.gov/metar/data/
 
Forecast for: FOOL (LIBREVILLE/LEON , GA)
Text: TAF FOOL 161700Z 1618/1724 24006KT 9999 SCT012 BKN030
Forecast period: 1800 UTC 16 August 2022 to 0000 UTC 18 August 2022
Forecast type: FROM: standard forecast or significant change
Winds: from the WSW (240 degrees) at 7 MPH (6 knots; 3.1 m/s)
Visibility: 6 or more miles (10+ km)
Ceiling: 3000 feet AGL
Clouds: scattered clouds at 1200 feet AGL
broken clouds at 3000 feet AGL
Weather: no significant weather forecast for this period